Time;durP1;ratioP1;P1;durP2;ratioP2;P2;SDS_P1;SDS_P2;PMS_P1;PMS_P2;Temp;Humidity;BMP_temperature;BMP_pressure;BME280_temperature;BME280_humidity;BME280_pressure;Samples;Min_cycle;Max_cycle;Signal;HPM_P1;HPM_P2
2022/05/10 00:01:48;;;;;;;10.40;6.92;;;;;;;4.14;61.03;102508.94;1723232;81;21726;-88
2022/05/10 00:04:15;;;;;;;15.00;7.08;;;;;;;4.15;61.09;102509.83;1746985;82;21050;-88
2022/05/10 00:06:47;;;;;;;12.65;7.22;;;;;;;4.12;61.14;102505.30;1745499;81;22589;-88
2022/05/10 00:09:19;;;;;;;13.70;7.65;;;;;;;4.10;61.16;102500.36;1726321;82;21004;-88
2022/05/10 00:11:46;;;;;;;12.33;6.50;;;;;;;4.08;61.18;102504.14;1740666;81;21094;-89
2022/05/10 00:14:12;;;;;;;14.98;7.00;;;;;;;4.06;61.24;102503.12;1743855;81;22379;-89
2022/05/10 00:16:41;;;;;;;12.28;6.75;;;;;;;4.03;61.26;102499.36;1740959;81;21134;-89
2022/05/10 00:19:11;;;;;;;15.03;7.42;;;;;;;4.00;61.33;102497.43;1742787;81;22583;-88
2022/05/10 00:21:38;;;;;;;17.17;7.40;;;;;;;3.98;61.35;102495.09;1745871;81;21081;-88
2022/05/10 00:24:06;;;;;;;15.08;7.17;;;;;;;3.95;61.45;102490.03;1722084;82;21078;-89
2022/05/10 00:26:34;;;;;;;10.45;6.15;;;;;;;3.91;61.50;102491.48;1744884;81;21161;-88
2022/05/10 00:29:01;;;;;;;11.90;6.37;;;;;;;3.88;61.58;102492.13;1742164;81;21066;-88
2022/05/10 00:31:28;;;;;;;11.73;5.92;;;;;;;3.86;61.67;102487.59;1745567;81;22486;-89
2022/05/10 00:33:55;;;;;;;14.00;6.10;;;;;;;3.84;61.72;102484.86;1745362;81;21125;-87
2022/05/10 00:36:23;;;;;;;11.43;6.15;;;;;;;3.82;61.86;102479.02;1729287;82;21067;-89
2022/05/10 00:38:50;;;;;;;11.30;6.25;;;;;;;3.82;61.90;102469.50;1731408;82;21143;-88
2022/05/10 00:41:43;;;;;;;12.25;6.00;;;;;;;3.83;61.97;102473.94;1691549;82;21067;-88
2022/05/10 00:44:24;;;;;;;12.88;6.47;;;;;;;3.83;62.01;102471.70;1717826;81;21754;-89
2022/05/10 00:47:20;;;;;;;12.13;5.97;;;;;;;3.83;62.13;102463.89;1741958;81;22238;-88
2022/05/10 00:50:11;;;;;;;12.58;6.20;;;;;;;3.82;62.17;102467.30;1728410;82;21590;-88
2022/05/10 00:53:01;;;;;;;14.40;6.10;;;;;;;3.82;62.28;102453.87;1718215;81;21074;-88
2022/05/10 00:55:48;;;;;;;12.60;6.12;;;;;;;3.81;62.30;102457.28;1742323;82;20971;-87
2022/05/10 00:58:43;;;;;;;14.85;6.33;;;;;;;3.73;62.37;102441.42;1735509;81;21786;-87
2022/05/10 01:01:18;;;;;;;10.93;6.20;;;;;;;3.77;62.38;102450.39;1734270;82;21101;-87
2022/05/10 01:04:06;;;;;;;11.25;6.25;;;;;;;3.74;62.46;102450.16;1720620;82;21084;-87
2022/05/10 01:06:41;;;;;;;11.03;6.70;;;;;;;3.70;62.49;102448.61;1744098;82;21094;-87
2022/05/10 01:09:42;;;;;;;14.33;6.15;;;;;;;3.68;62.51;102447.58;1726881;81;21000;-87
2022/05/10 01:12:33;;;;;;;11.57;5.85;;;;;;;3.64;62.62;102446.82;1744283;82;21764;-87
2022/05/10 01:15:22;;;;;;;10.32;5.45;;;;;;;3.62;62.71;102443.55;1744316;81;21074;-88
2022/05/10 01:17:49;;;;;;;9.38;5.53;;;;;;;3.59;62.77;102443.34;1660247;83;21019;-86
2022/05/10 01:20:20;;;;;;;11.22;6.53;;;;;;;3.57;62.83;102439.70;1714343;82;21574;-87
2022/05/10 01:23:24;;;;;;;14.75;6.03;;;;;;;3.55;62.88;102434.73;1727620;82;21098;-86
2022/05/10 01:26:04;;;;;;;11.85;6.15;;;;;;;3.55;62.96;102429.52;1680581;82;22656;-89
2022/05/10 01:28:36;;;;;;;11.65;5.85;;;;;;;3.55;63.01;102429.16;1741015;81;21089;-87
2022/05/10 01:31:06;;;;;;;12.98;6.62;;;;;;;3.56;63.06;102423.55;1711393;82;21577;-87
2022/05/10 01:33:40;;;;;;;8.83;5.55;;;;;;;3.56;63.10;102417.04;1711128;82;21686;-87
2022/05/10 01:36:34;;;;;;;12.25;6.05;;;;;;;3.53;63.11;102412.50;1745442;82;21134;-88
2022/05/10 01:39:12;;;;;;;9.48;5.92;;;;;;;3.57;63.18;102416.27;1728104;81;21793;-87
2022/05/10 01:42:08;;;;;;;10.68;5.97;;;;;;;3.55;63.19;102412.23;1730599;82;21078;-87
2022/05/10 01:44:46;;;;;;;10.50;5.62;;;;;;;3.50;63.15;102404.03;1742197;81;21589;-87
2022/05/10 01:47:35;;;;;;;11.05;6.37;;;;;;;3.47;63.21;102405.11;1720857;81;21143;-88
2022/05/10 01:50:30;;;;;;;13.28;6.08;;;;;;;3.43;63.30;102403.02;1751692;81;21560;-87
2022/05/10 01:53:08;;;;;;;16.85;6.03;;;;;;;3.38;63.36;102403.07;1750903;81;21680;-88
2022/05/10 01:55:53;;;;;;;12.63;6.33;;;;;;;3.34;63.39;102400.08;1750903;80;21094;-87
2022/05/10 01:58:26;;;;;;;13.28;6.53;;;;;;;3.30;63.54;102394.64;1729604;81;21137;-88
2022/05/10 02:00:58;;;;;;;10.78;5.70;;;;;;;3.29;63.60;102392.81;1747234;81;21074;-86
2022/05/10 02:03:43;;;;;;;;;;;;;;;3.29;63.68;102389.31;1732059;81;22299;-88
2022/05/10 02:06:32;;;;;;;9.65;5.95;;;;;;;3.28;63.78;102392.31;1732187;81;22580;-88
2022/05/10 02:09:07;;;;;;;9.08;5.75;;;;;;;3.28;63.82;102386.17;1725528;81;21040;-87
2022/05/10 02:11:38;;;;;;;12.82;6.35;;;;;;;3.29;63.85;102388.02;1753168;81;21403;-87
2022/05/10 02:14:51;;;;;;;15.25;6.50;;;;;;;3.29;63.88;102380.20;1751705;81;21119;-88
2022/05/10 02:17:32;;;;;;;13.45;6.03;;;;;;;3.29;63.90;102381.50;1729945;81;21718;-87
2022/05/10 02:20:29;;;;;;;13.83;6.20;;;;;;;3.29;63.91;102380.20;1751324;81;21774;-87
2022/05/10 02:23:25;;;;;;;11.83;5.70;;;;;;;3.29;63.92;102373.30;1751438;81;21614;-86
2022/05/10 02:26:15;;;;;;;12.82;6.25;;;;;;;3.28;63.88;102366.66;1700704;81;21170;-87
2022/05/10 02:28:58;;;;;;;11.95;6.08;;;;;;;3.27;63.92;102363.16;1750089;81;21095;-87
2022/05/10 02:31:28;;;;;;;;;;;;;;;3.22;63.89;102359.67;1750864;81;21074;-87
2022/05/10 02:33:55;;;;;;;12.00;5.97;;;;;;;3.23;63.99;102357.20;1746872;81;21146;-88
2022/05/10 02:36:22;;;;;;;12.15;6.72;;;;;;;3.23;64.04;102357.56;1734961;81;21066;-87
2022/05/10 02:38:48;;;;;;;11.45;5.87;;;;;;;3.20;64.05;102351.73;1751530;81;21105;-88
2022/05/10 02:41:19;;;;;;;12.15;6.30;;;;;;;3.20;64.06;102358.64;1751095;81;21127;-87
2022/05/10 02:43:56;;;;;;;11.68;6.37;;;;;;;3.17;64.10;102348.87;1751166;81;21101;-88
2022/05/10 02:46:24;;;;;;;13.00;6.40;;;;;;;3.15;64.19;102353.05;1725406;81;22438;-87
2022/05/10 02:48:50;;;;;;;13.72;6.83;;;;;;;3.13;64.26;102348.11;1695350;82;21078;-86
2022/05/10 02:51:17;;;;;;;12.75;5.92;;;;;;;3.14;64.30;102353.85;1662946;84;21319;-87
2022/05/10 02:53:45;;;;;;;9.98;6.30;;;;;;;3.14;64.37;102350.35;1660035;85;21112;-87
2022/05/10 02:56:14;;;;;;;11.25;5.80;;;;;;;3.15;64.43;102346.95;1651832;84;21098;-87
2022/05/10 02:58:51;;;;;;;15.83;5.95;;;;;;;3.13;64.32;102349.42;1671019;84;21791;-87
2022/05/10 03:01:27;;;;;;;8.88;5.33;;;;;;;3.12;64.31;102342.41;1669669;84;21054;-88
2022/05/10 03:03:53;;;;;;;10.05;7.05;;;;;;;3.11;64.28;102342.78;1671595;84;21528;-88
2022/05/10 03:06:23;;;;;;;16.00;6.65;;;;;;;3.10;64.37;102344.89;1671434;84;21101;-88
2022/05/10 03:08:50;;;;;;;13.98;7.42;;;;;;;3.14;64.43;102343.84;1667076;84;21160;-88
2022/05/10 03:11:17;;;;;;;13.68;6.42;;;;;;;3.13;64.41;102337.71;1660207;84;22258;-89
2022/05/10 03:13:44;;;;;;;12.98;6.37;;;;;;;3.14;64.46;102343.44;1645862;84;21186;-89
2022/05/10 03:16:11;;;;;;;18.40;7.55;;;;;;;3.19;64.59;102342.13;1644618;84;21098;-88
2022/05/10 03:18:37;;;;;;;13.88;7.35;;;;;;;3.26;64.66;102336.60;1645431;84;21165;-88
2022/05/10 03:21:04;;;;;;;11.45;6.80;;;;;;;3.35;64.68;102332.94;1644835;84;21089;-88
2022/05/10 03:23:31;;;;;;;10.82;6.67;;;;;;;3.48;64.69;102340.93;1665524;84;21781;-87
2022/05/10 03:25:57;;;;;;;13.38;7.20;;;;;;;3.39;64.66;102307.26;1671085;85;21698;-86
2022/05/10 03:28:25;;;;;;;11.78;6.92;;;;;;;3.67;64.71;102332.46;1652089;84;21133;-88
2022/05/10 03:30:51;;;;;;;11.38;6.35;;;;;;;3.87;64.73;102338.34;1660934;84;21113;-88
2022/05/10 03:33:22;;;;;;;12.47;6.45;;;;;;;4.14;64.75;102339.53;1623338;85;21109;-88
2022/05/10 03:35:49;;;;;;;9.55;6.17;;;;;;;4.45;64.70;102333.66;1646950;84;22618;-88
2022/05/10 03:38:37;;;;;;;13.78;7.22;;;;;;;5.04;65.07;102331.44;1669429;84;22213;-87
2022/05/10 03:41:00;;;;;;;;;;;;;;;6.20;65.37;102330.02;1663913;84;21543;-86
2022/05/10 03:43:30;;;;;;;10.95;6.60;;;;;;;8.02;65.08;102324.65;1667241;84;21226;-87
2022/05/10 03:46:06;;;;;;;15.70;6.40;;;;;;;9.65;63.81;102316.50;1642283;84;21132;-87
2022/05/10 03:48:36;;;;;;;14.18;6.80;;;;;;;11.16;61.92;102310.97;1674323;83;22017;-88
2022/05/10 03:51:03;;;;;;;13.25;5.95;;;;;;;12.67;60.55;102308.86;1685470;83;21457;-87
2022/05/10 03:53:31;;;;;;;10.98;5.62;;;;;;;14.00;58.38;102307.86;1667706;84;21478;-88
2022/05/10 03:55:59;;;;;;;11.53;6.30;;;;;;;15.12;56.54;102306.78;1636165;85;21203;-87
2022/05/10 03:58:27;;;;;;;12.20;6.55;;;;;;;16.18;54.89;102296.61;1678965;83;21020;-87
2022/05/10 04:00:54;;;;;;;12.18;6.33;;;;;;;17.19;53.51;102296.91;1692936;83;22575;-86
2022/05/10 04:03:20;;;;;;;12.90;6.92;;;;;;;18.15;51.91;102290.86;1716777;83;21102;-87
2022/05/10 04:05:51;;;;;;;12.30;6.85;;;;;;;19.00;50.21;102290.54;1707884;80;21040;-88
2022/05/10 04:08:24;;;;;;;10.53;6.25;;;;;;;19.86;48.89;102284.08;1702499;83;21033;-87
2022/05/10 04:10:51;;;;;;;16.90;6.58;;;;;;;20.72;47.61;102288.93;1731772;80;21065;-87
2022/05/10 04:13:18;;;;;;;11.73;6.22;;;;;;;21.47;46.23;102288.09;1698891;81;21821;-87
2022/05/10 04:15:44;;;;;;;10.40;5.83;;;;;;;22.08;45.03;102288.70;1717282;83;21041;-88
2022/05/10 04:18:44;;;;;;;8.03;5.25;;;;;;;22.65;43.86;102291.89;1716008;82;21028;-89
2022/05/10 04:21:11;;;;;;;10.15;5.50;;;;;;;23.37;42.91;102289.10;1707907;83;21101;-88
2022/05/10 04:23:37;;;;;;;7.78;5.10;;;;;;;24.26;41.46;102289.95;1712203;81;21082;-89
2022/05/10 04:26:10;;;;;;;8.53;5.17;;;;;;;24.72;39.90;102295.46;1722146;81;21806;-88
2022/05/10 04:28:37;;;;;;;11.25;5.22;;;;;;;25.20;39.09;102290.91;1711853;81;21080;-89
2022/05/10 04:31:04;;;;;;;13.00;5.37;;;;;;;26.00;37.20;102262.95;1704884;83;21581;-89
2022/05/10 04:33:31;;;;;;;7.53;5.22;;;;;;;26.00;37.20;102262.95;1714018;81;21080;-86
2022/05/10 04:35:58;;;;;;;10.03;5.22;;;;;;;26.65;36.23;102286.19;1710337;83;21096;-90
2022/05/10 04:38:24;;;;;;;8.28;5.42;;;;;;;27.13;35.21;102282.14;1716328;82;22061;-87
2022/05/10 04:43:37;;;;;;;7.60;5.65;;;;;;;27.93;33.76;102275.08;1712412;82;21632;-86
2022/05/10 04:46:03;;;;;;;12.43;6.08;;;;;;;28.18;33.04;102278.08;1708689;82;21122;-88
2022/05/10 04:48:30;;;;;;;12.65;5.85;;;;;;;28.68;32.68;102279.08;1703415;83;21583;-88
2022/05/10 04:50:57;;;;;;;8.18;5.65;;;;;;;29.26;31.71;102275.24;1730613;80;21807;-88
2022/05/10 04:53:24;;;;;;;12.28;6.22;;;;;;;29.66;31.08;102270.87;1705162;82;21984;-87
2022/05/10 04:55:51;;;;;;;15.13;6.42;;;;;;;30.04;30.43;102280.13;1729630;82;21076;-87
2022/05/10 04:58:18;;;;;;;12.18;7.37;;;;;;;30.30;29.94;102279.27;1727693;80;21096;-87
2022/05/10 05:00:44;;;;;;;12.55;7.62;;;;;;;30.57;29.26;102275.20;1698816;82;21985;-86
2022/05/10 05:03:11;;;;;;;15.05;8.38;;;;;;;30.91;28.78;102274.03;1731074;80;22563;-87
2022/05/10 05:05:38;;;;;;;12.53;6.95;;;;;;;31.13;28.43;102269.58;1736155;80;21111;-87
2022/05/10 05:08:04;;;;;;;11.95;7.00;;;;;;;31.56;27.80;102267.08;1736937;80;21828;-87
2022/05/10 05:10:31;;;;;;;9.28;5.62;;;;;;;31.97;27.25;102267.25;1722975;82;21664;-87
2022/05/10 05:12:58;;;;;;;7.15;5.42;;;;;;;32.18;26.49;102266.86;1728614;80;21111;-87
2022/05/10 05:15:25;;;;;;;8.58;4.72;;;;;;;32.16;25.99;102263.31;1734267;82;21782;-87
2022/05/10 05:17:51;;;;;;;8.73;4.70;;;;;;;32.32;25.90;102256.27;1729976;80;21046;-86
2022/05/10 05:20:18;;;;;;;13.45;5.78;;;;;;;32.55;25.26;102256.63;1722476;80;21076;-87
2022/05/10 05:22:45;;;;;;;8.23;5.05;;;;;;;32.61;25.03;102258.23;1726708;80;21095;-87
2022/05/10 05:25:11;;;;;;;9.68;5.17;;;;;;;32.78;24.62;102253.39;1727586;80;21333;-87
2022/05/10 05:27:38;;;;;;;10.58;4.95;;;;;;;32.96;24.47;102254.41;1714071;82;22535;-87
2022/05/10 05:30:05;;;;;;;9.15;5.10;;;;;;;33.13;24.09;102249.58;1723188;81;21076;-87
2022/05/10 05:32:34;;;;;;;7.20;3.90;;;;;;;33.14;23.67;102250.45;1728907;80;21060;-87
2022/05/10 05:35:01;;;;;;;11.48;4.67;;;;;;;31.17;22.49;102243.16;1735440;82;21087;-90
2022/05/10 05:37:34;;;;;;;9.23;4.80;;;;;;;28.32;22.56;102239.81;1731630;82;21106;-87
2022/05/10 05:40:09;;;;;;;10.47;5.47;;;;;;;25.89;23.15;102237.91;1731673;82;22608;-87
2022/05/10 05:42:36;;;;;;;9.93;4.87;;;;;;;23.66;23.96;102232.96;1715687;80;21103;-87
2022/05/10 05:45:06;;;;;;;10.28;4.72;;;;;;;21.97;24.83;102239.53;1724764;82;21074;-86
2022/05/10 05:47:33;;;;;;;16.27;4.87;;;;;;;20.63;25.46;102236.69;1694751;83;21167;-86
2022/05/10 05:50:00;;;;;;;5.47;4.17;;;;;;;19.50;26.31;102250.28;1714357;81;21480;-86
2022/05/10 05:52:27;;;;;;;5.83;4.42;;;;;;;18.66;26.96;102247.31;1710614;83;21714;-86
2022/05/10 05:54:59;;;;;;;10.32;5.50;;;;;;;17.93;27.65;102251.84;1708162;81;21337;-86
2022/05/10 05:57:34;;;;;;;12.00;5.30;;;;;;;17.36;28.36;102252.03;1710092;82;21574;-87
2022/05/10 06:00:05;;;;;;;14.18;8.58;;;;;;;16.83;29.00;102247.73;1709236;82;21602;-87
2022/05/10 06:02:34;;;;;;;7.58;5.05;;;;;;;16.40;29.74;102250.21;1710917;83;21107;-86
2022/05/10 06:05:01;;;;;;;8.60;5.03;;;;;;;16.03;30.22;102255.93;1710239;83;21772;-86
2022/05/10 06:07:28;;;;;;;15.78;5.20;;;;;;;15.74;30.69;102260.00;1680601;84;21079;-86
2022/05/10 06:09:55;;;;;;;8.38;5.33;;;;;;;15.30;31.16;102237.05;1663954;84;21087;-86
2022/05/10 06:12:22;;;;;;;10.58;6.17;;;;;;;15.26;31.63;102267.00;1660723;86;21098;-87
2022/05/10 06:14:48;;;;;;;12.03;5.60;;;;;;;15.13;32.12;102259.53;1667455;85;21180;-86
2022/05/10 06:17:15;;;;;;;7.75;4.80;;;;;;;15.00;32.41;102260.90;1663623;84;21776;-86
2022/05/10 06:19:42;;;;;;;10.60;5.42;;;;;;;14.86;32.77;102262.20;1668118;84;21094;-85
2022/05/10 06:22:10;;;;;;;12.75;5.15;;;;;;;14.76;33.12;102261.02;1668992;84;21559;-86
2022/05/10 06:24:37;;;;;;;10.70;5.05;;;;;;;14.68;33.55;102259.45;1663070;84;21101;-84
2022/05/10 06:27:05;;;;;;;13.45;5.30;;;;;;;14.63;33.83;102250.45;1668625;84;21085;-84
2022/05/10 06:29:32;;;;;;;13.75;5.47;;;;;;;14.57;34.09;102256.45;1667264;84;21194;-85
2022/05/10 06:31:59;;;;;;;9.78;5.45;;;;;;;14.56;34.49;102244.03;1666321;84;21636;-85
2022/05/10 06:34:25;;;;;;;10.32;5.37;;;;;;;14.53;34.58;102243.92;1669774;84;21093;-86
2022/05/10 06:36:52;;;;;;;10.93;4.87;;;;;;;14.49;34.84;102239.38;1668870;84;21097;-85
2022/05/10 06:39:19;;;;;;;10.28;4.80;;;;;;;14.47;35.04;102235.78;1671923;84;21168;-86
2022/05/10 06:41:46;;;;;;;9.70;5.10;;;;;;;14.49;35.32;102226.13;1667695;84;22467;-85
2022/05/10 06:44:13;;;;;;;13.68;5.33;;;;;;;14.51;35.45;102224.42;1671180;84;21065;-85
2022/05/10 06:46:40;;;;;;;18.48;5.50;;;;;;;14.51;35.52;102220.45;1667908;84;21105;-87
2022/05/10 06:49:08;;;;;;;8.93;5.30;;;;;;;14.52;35.61;102217.37;1691729;82;21063;-87
2022/05/10 06:51:35;;;;;;;10.75;5.67;;;;;;;14.50;35.77;102222.61;1726153;82;21165;-85
2022/05/10 06:54:02;;;;;;;10.18;5.67;;;;;;;14.53;35.99;102217.42;1726957;81;21755;-86
2022/05/10 06:56:29;;;;;;;9.73;5.33;;;;;;;14.57;36.02;102215.81;1715911;82;21084;-85
2022/05/10 06:58:55;;;;;;;13.85;4.90;;;;;;;14.58;36.22;102210.97;1726375;81;21088;-85
2022/05/10 07:01:34;;;;;;;9.95;4.78;;;;;;;14.63;36.15;102207.16;1713602;82;21329;-86
2022/05/10 07:04:02;;;;;;;15.72;8.93;;;;;;;14.66;36.33;102207.23;1692999;82;21150;-86
2022/05/10 07:06:29;;;;;;;12.88;5.42;;;;;;;14.70;36.45;102196.79;1707241;82;22594;-85
2022/05/10 07:08:56;;;;;;;12.23;5.00;;;;;;;14.74;36.53;102201.33;1743691;80;21397;-85
2022/05/10 07:11:23;;;;;;;12.28;5.22;;;;;;;14.80;36.59;102203.27;1689286;83;21140;-86
2022/05/10 07:13:50;;;;;;;10.45;5.40;;;;;;;14.87;36.66;102196.42;1666839;83;21118;-85
2022/05/10 07:16:19;;;;;;;8.70;4.50;;;;;;;14.93;36.81;102193.95;1679251;82;21078;-86
2022/05/10 07:18:50;;;;;;;14.83;6.47;;;;;;;15.00;36.85;102187.05;1677677;82;21788;-85
2022/05/10 07:21:17;;;;;;;8.83;5.15;;;;;;;15.07;36.73;102178.03;1678208;83;21017;-85
2022/05/10 07:23:43;;;;;;;11.60;4.87;;;;;;;15.13;36.87;102178.64;1671393;82;21168;-86
2022/05/10 07:26:10;;;;;;;6.55;4.35;;;;;;;15.20;37.05;102174.39;1667067;82;21176;-85
2022/05/10 07:28:37;;;;;;;11.35;4.25;;;;;;;15.28;37.03;102167.57;1677726;83;21077;-85
2022/05/10 07:31:04;;;;;;;14.53;4.70;;;;;;;15.36;37.08;102171.33;1693220;83;21706;-86
2022/05/10 07:33:30;;;;;;;10.25;4.00;;;;;;;15.44;37.13;102178.17;1687768;83;21121;-85
2022/05/10 07:38:46;;;;;;;8.63;4.53;;;;;;;15.60;37.05;102171.11;1722502;82;21654;-85
2022/05/10 07:41:21;;;;;;;11.97;4.65;;;;;;;15.68;37.04;102168.22;1675372;82;21139;-85
2022/05/10 07:43:46;;;;;;;8.60;3.75;;;;;;;15.76;37.03;102160.92;1731097;82;22635;-85
2022/05/10 07:46:13;;;;;;;5.85;3.85;;;;;;;15.83;36.99;102160.23;1717023;82;21491;-85
2022/05/10 07:48:39;;;;;;;8.70;3.80;;;;;;;15.89;37.02;102152.41;1728717;80;21551;-86
2022/05/10 07:51:07;;;;;;;5.42;3.42;;;;;;;15.98;36.85;102155.75;1735934;82;21127;-86
2022/05/10 07:53:37;;;;;;;12.82;3.67;;;;;;;16.04;36.87;102149.25;1698187;84;21075;-85
2022/05/10 07:56:03;;;;;;;7.83;3.85;;;;;;;16.11;36.85;102146.78;1662106;85;21856;-85
2022/05/10 07:58:33;;;;;;;5.50;3.45;;;;;;;16.19;36.77;102140.32;1696905;83;21106;-85
2022/05/10 08:01:00;;;;;;;9.38;3.72;;;;;;;16.27;36.82;102132.53;1710374;81;21136;-85
2022/05/10 08:03:26;;;;;;;8.40;3.60;;;;;;;16.36;36.71;102126.11;1713491;83;22024;-85
2022/05/10 08:05:59;;;;;;;10.93;4.92;;;;;;;16.42;36.67;102122.69;1707806;83;21133;-85
2022/05/10 08:08:29;;;;;;;25.80;19.00;;;;;;;16.51;36.48;102123.80;1718427;82;22121;-85
2022/05/10 08:10:56;;;;;;;7.28;4.30;;;;;;;16.58;36.45;102123.95;1714391;82;21728;-85
2022/05/10 08:13:25;;;;;;;8.40;4.42;;;;;;;16.64;36.39;102125.41;1716911;79;21065;-85
2022/05/10 08:15:52;;;;;;;11.22;4.45;;;;;;;16.71;36.24;102131.33;1728365;82;21017;-85
2022/05/10 08:18:19;;;;;;;7.97;3.60;;;;;;;16.76;36.01;102123.03;1720337;82;20957;-85
2022/05/10 08:20:46;;;;;;;6.28;3.05;;;;;;;16.81;35.84;102125.77;1714845;81;21712;-85
2022/05/10 08:23:24;;;;;;;9.63;3.72;;;;;;;16.87;36.01;102125.93;1718268;81;21076;-85
2022/05/10 08:25:56;;;;;;;5.37;3.22;;;;;;;16.97;36.12;102119.95;1717908;83;21053;-85
2022/05/10 08:28:28;;;;;;;8.73;3.27;;;;;;;17.05;35.76;102114.34;1712698;83;21095;-85
2022/05/10 08:30:55;;;;;;;9.98;5.25;;;;;;;17.13;35.68;102103.84;1693627;84;21145;-85
2022/05/10 08:33:30;;;;;;;11.68;3.20;;;;;;;17.18;35.63;102099.52;1704494;84;22576;-85
2022/05/10 08:35:57;;;;;;;8.30;3.42;;;;;;;17.27;35.46;102097.04;1712901;82;21072;-86
2022/05/10 08:38:27;;;;;;;7.35;2.92;;;;;;;17.34;35.19;102095.81;1711537;82;21084;-85
2022/05/10 08:41:13;;;;;;;11.57;3.50;;;;;;;17.37;35.12;102086.12;1707004;83;21190;-85
2022/05/10 08:43:50;;;;;;;6.30;3.55;;;;;;;17.46;35.33;102085.41;1709834;82;21680;-86
2022/05/10 08:46:20;;;;;;;8.18;2.98;;;;;;;17.56;35.17;102088.67;1709454;81;21782;-85
2022/05/10 08:48:50;;;;;;;7.28;3.40;;;;;;;17.48;34.92;102063.25;1718222;82;21104;-85
2022/05/10 08:51:17;;;;;;;8.20;2.98;;;;;;;17.65;34.91;102075.53;1696473;83;21100;-85
2022/05/10 08:53:44;;;;;;;5.83;3.00;;;;;;;17.71;34.68;102072.52;1726804;82;21091;-85
2022/05/10 08:56:32;;;;;;;6.75;4.20;;;;;;;17.77;34.78;102069.50;1701939;82;21121;-85
2022/05/10 08:59:16;;;;;;;4.90;2.83;;;;;;;17.85;34.76;102062.59;1662748;84;21783;-85
2022/05/10 09:01:54;;;;;;;9.48;3.02;;;;;;;17.91;34.69;102060.45;1705972;82;21643;-87
2022/05/10 09:04:47;;;;;;;5.80;3.08;;;;;;;17.98;34.69;102054.77;1709070;82;21092;-85
2022/05/10 09:08:04;;;;;;;6.47;2.58;;;;;;;18.06;34.56;102051.80;1648739;83;21135;-85
2022/05/10 09:10:49;;;;;;;5.12;2.60;;;;;;;18.15;34.18;102043.95;1650219;85;21120;-86
2022/05/10 09:13:17;;;;;;;7.67;2.72;;;;;;;18.25;33.87;102048.52;1718538;82;22716;-85
2022/05/10 09:15:55;;;;;;;8.50;2.15;;;;;;;18.33;33.79;102045.95;1725114;81;21119;-85
2022/05/10 09:18:28;;;;;;;5.50;2.37;;;;;;;18.43;33.66;102045.63;1731438;82;21637;-85
2022/05/10 09:21:20;;;;;;;4.60;2.40;;;;;;;18.50;33.26;102035.95;1714394;82;21153;-85
2022/05/10 09:24:21;;;;;;;5.30;2.70;;;;;;;18.55;33.17;102026.25;1722693;81;21072;-84
2022/05/10 09:26:51;;;;;;;6.78;2.37;;;;;;;18.64;32.99;102024.59;1713954;81;21757;-85
2022/05/10 09:29:38;;;;;;;9.80;6.95;;;;;;;18.71;32.77;102019.32;1696014;83;21622;-85
2022/05/10 09:35:22;;;;;;;8.08;2.75;;;;;;;18.66;32.35;101989.94;1710836;83;21611;-84
2022/05/10 09:37:54;;;;;;;7.15;2.30;;;;;;;18.82;32.38;102007.03;1714333;82;21097;-85
2022/05/10 09:40:37;;;;;;;7.03;2.12;;;;;;;18.90;32.28;101997.77;1720365;82;22581;-85
2022/05/10 09:43:29;;;;;;;3.55;2.60;;;;;;;18.99;32.11;101992.53;1719413;82;21059;-85
2022/05/10 09:46:12;;;;;;;4.85;2.83;;;;;;;19.11;32.26;101994.00;1722634;82;21084;-85
2022/05/10 09:48:40;;;;;;;4.30;2.55;;;;;;;18.97;32.38;101943.15;1719284;82;21574;-85
2022/05/10 09:51:39;;;;;;;4.75;2.98;;;;;;;19.34;32.36;101978.63;1727872;82;21624;-85
2022/05/10 09:54:25;;;;;;;4.47;1.98;;;;;;;19.41;32.37;101973.80;1730567;80;21763;-85
2022/05/10 09:56:56;;;;;;;8.40;2.52;;;;;;;19.53;31.65;101970.33;1742282;82;21517;-85
2022/05/10 09:59:45;;;;;;;5.90;2.20;;;;;;;19.61;31.33;101970.84;1746492;81;21424;-86
2022/05/10 10:02:33;;;;;;;4.70;2.55;;;;;;;19.57;31.19;101952.09;1715470;82;21071;-85
2022/05/10 10:05:01;;;;;;;8.45;2.30;;;;;;;19.72;31.21;101961.99;1745408;81;21077;-84
2022/05/10 10:07:30;;;;;;;3.00;2.25;;;;;;;19.59;30.79;101932.52;1709014;82;22164;-84
2022/05/10 10:10:15;;;;;;;6.97;5.42;;;;;;;19.73;30.75;101964.72;1744328;81;21094;-84
2022/05/10 10:12:44;;;;;;;6.95;2.72;;;;;;;19.79;30.71;101958.52;1721666;82;21095;-85
2022/05/10 10:15:22;;;;;;;6.08;2.60;;;;;;;19.87;30.71;101950.09;1736907;81;21145;-85
2022/05/10 10:17:56;;;;;;;5.35;2.35;;;;;;;19.96;30.73;101946.14;1681308;85;21630;-85
2022/05/10 10:20:49;;;;;;;3.87;2.60;;;;;;;20.04;30.85;101941.28;1649597;84;21558;-86
2022/05/10 10:23:40;;;;;;;4.80;2.37;;;;;;;20.11;30.55;101927.95;1680272;85;21622;-85
2022/05/10 10:26:23;;;;;;;8.35;3.45;;;;;;;20.22;30.79;101920.43;1640923;85;21130;-85
2022/05/10 10:28:58;;;;;;;9.60;3.37;;;;;;;20.34;30.78;101920.00;1667294;85;21770;-85
2022/05/10 10:31:32;;;;;;;8.08;2.40;;;;;;;20.41;30.61;101915.58;1673270;85;21133;-84
2022/05/10 10:34:03;;;;;;;8.58;4.58;;;;;;;20.48;30.85;101911.16;1626358;87;22574;-85
2022/05/10 10:36:39;;;;;;;9.00;3.02;;;;;;;20.58;30.74;101914.28;1607141;88;21160;-85
2022/05/10 10:39:23;;;;;;;6.87;4.42;;;;;;;20.64;30.40;101910.31;1624957;87;21185;-84
2022/05/10 10:42:13;;;;;;;7.40;3.17;;;;;;;20.69;30.40;101913.01;1624522;87;21125;-85
2022/05/10 10:44:50;;;;;;;4.47;2.33;;;;;;;20.74;29.85;101905.44;1604588;87;21243;-84
2022/05/10 10:47:31;;;;;;;7.53;2.52;;;;;;;20.67;29.79;101907.66;1626772;86;22708;-84
2022/05/10 10:50:27;;;;;;;2.92;2.27;;;;;;;20.71;29.82;101905.88;1605034;87;21092;-86
2022/05/10 10:52:55;;;;;;;6.87;2.17;;;;;;;20.72;29.66;101899.19;1607698;88;21116;-85
2022/05/10 10:55:25;;;;;;;4.67;2.62;;;;;;;20.76;29.58;101896.08;1599511;88;21618;-85
2022/05/10 10:58:22;;;;;;;4.78;2.45;;;;;;;20.83;29.83;101891.15;1599622;88;21160;-85
2022/05/10 11:00:56;;;;;;;5.45;2.50;;;;;;;20.91;29.69;101885.80;1605647;88;21885;-85
2022/05/10 11:03:34;;;;;;;4.17;2.22;;;;;;;20.95;29.44;101878.25;1599564;88;27979;-85
2022/05/10 11:06:28;;;;;;;3.98;2.30;;;;;;;21.04;29.28;101865.28;1606745;88;21592;-84
2022/05/10 11:09:14;;;;;;;14.95;3.15;;;;;;;21.15;29.43;101863.48;1607261;88;21153;-84
2022/05/10 11:11:49;;;;;;;5.03;2.70;;;;;;;21.13;29.65;101824.70;1619888;87;22217;-85
2022/05/10 11:14:30;;;;;;;10.65;3.60;;;;;;;21.43;29.45;101854.08;1638124;83;21757;-85
2022/05/10 11:17:14;;;;;;;5.92;2.45;;;;;;;21.48;28.98;101855.88;1710436;82;21093;-85
2022/05/10 11:20:11;;;;;;;4.20;2.17;;;;;;;21.49;28.52;101849.64;1737995;82;21684;-85
2022/05/10 11:22:45;;;;;;;2.60;1.62;;;;;;;21.49;28.52;101845.62;1736029;81;21078;-85
2022/05/10 11:25:54;;;;;;;7.20;1.72;;;;;;;21.53;28.15;101840.70;1712735;82;21615;-85
2022/05/10 11:28:43;;;;;;;4.95;1.90;;;;;;;21.64;28.11;101837.99;1703426;82;21768;-85
2022/05/10 11:31:24;;;;;;;2.72;1.55;;;;;;;21.73;27.83;101839.30;1724321;82;21133;-85
2022/05/10 11:34:30;;;;;;;7.45;2.35;;;;;;;21.57;28.00;101789.34;1710467;82;21070;-86
2022/05/10 11:36:59;;;;;;;10.75;3.02;;;;;;;21.94;27.92;101825.33;1704353;83;21078;-86
2022/05/10 11:39:56;;;;;;;5.47;2.70;;;;;;;21.79;27.94;101775.41;1735256;81;21146;-86
2022/05/10 11:42:45;;;;;;;4.60;1.95;;;;;;;22.08;27.52;101819.91;1718973;82;21773;-85
2022/05/10 11:45:51;;;;;;;5.62;2.10;;;;;;;22.09;27.38;101823.02;1696607;83;21151;-86
2022/05/10 11:48:42;;;;;;;3.92;1.80;;;;;;;22.06;27.10;101814.55;1657309;85;21186;-86
2022/05/10 11:54:38;;;;;;;9.83;2.33;;;;;;;21.90;26.95;101791.40;1690760;83;21087;-86
2022/05/10 11:57:15;;;;;;;9.28;2.62;;;;;;;21.88;26.93;101791.41;1669126;83;21134;-85
2022/05/10 11:59:43;;;;;;;6.25;2.35;;;;;;;21.88;26.81;101781.14;1684241;83;21100;-85
2022/05/10 12:02:32;;;;;;;9.55;2.17;;;;;;;21.91;26.91;101782.02;1677319;83;21048;-85
2022/05/10 12:05:25;;;;;;;4.83;2.35;;;;;;;21.91;26.50;101773.98;1682181;83;21186;-86
2022/05/10 12:08:04;;;;;;;5.45;2.15;;;;;;;21.60;26.42;101731.70;1687674;83;21048;-85
2022/05/10 12:10:40;;;;;;;7.55;2.20;;;;;;;21.79;26.37;101770.47;1658799;83;21786;-85